createdAt,value
2022-08-26T00:00:54.110Z,99.90
2022-08-26T00:03:22.743Z,99.90
2022-08-26T00:05:50.740Z,99.90
2022-08-26T00:08:19.828Z,99.90
2022-08-26T00:15:52.443Z,99.90
2022-08-26T00:18:23.057Z,99.90
2022-08-26T00:20:54.350Z,99.90
2022-08-26T00:23:24.253Z,99.90
2022-08-26T00:25:51.923Z,99.90
2022-08-26T00:28:19.673Z,99.90
2022-08-26T00:30:49.447Z,99.90
2022-08-26T00:36:01.177Z,99.90
2022-08-26T00:38:28.017Z,99.90
2022-08-26T00:40:57.132Z,99.90
2022-08-26T00:43:25.361Z,99.90
2022-08-26T00:46:13.040Z,99.90
2022-08-26T00:48:44.385Z,99.90
2022-08-26T00:51:16.605Z,99.90
2022-08-26T00:59:02.954Z,99.90
2022-08-26T01:01:31.835Z,99.90
2022-08-26T01:04:00.502Z,99.90
2022-08-26T01:06:30.699Z,99.90
2022-08-26T01:08:58.161Z,99.90
2022-08-26T01:11:26.607Z,99.90
2022-08-26T01:13:58.665Z,99.90
2022-08-26T01:21:27.141Z,99.90
2022-08-26T01:23:57.499Z,99.90
2022-08-26T01:26:32.824Z,99.90
2022-08-26T01:29:02.422Z,99.90
2022-08-26T01:31:37.297Z,99.90
2022-08-26T01:34:10.449Z,99.90
2022-08-26T01:36:39.382Z,99.90
2022-08-26T01:45:00.503Z,99.90
2022-08-26T01:47:30.349Z,99.90
2022-08-26T01:50:00.803Z,99.90
2022-08-26T01:52:32.857Z,99.90
2022-08-26T01:55:00.390Z,99.90
2022-08-26T01:57:28.622Z,99.90
2022-08-26T01:59:59.412Z,99.90
2022-08-26T02:07:21.551Z,99.90
2022-08-26T02:09:51.263Z,99.90
2022-08-26T02:12:22.262Z,99.90
2022-08-26T02:14:56.298Z,99.90
2022-08-26T02:17:40.272Z,99.90
2022-08-26T02:20:14.836Z,99.90
2022-08-26T02:37:58.423Z,99.90
2022-08-26T02:40:33.930Z,99.90
2022-08-26T02:43:03.045Z,99.90
2022-08-26T02:45:30.305Z,99.90
2022-08-26T02:47:58.025Z,99.90
2022-08-26T02:50:28.486Z,99.90
2022-08-26T02:52:55.280Z,99.90
2022-08-26T03:00:52.665Z,99.90
2022-08-26T03:03:23.490Z,99.90
2022-08-26T03:05:51.832Z,99.90
2022-08-26T03:08:19.070Z,99.90
2022-08-26T03:10:47.179Z,99.90
2022-08-26T03:13:17.349Z,99.90
2022-08-26T03:15:44.933Z,99.90
2022-08-26T03:23:20.614Z,99.90
2022-08-26T03:25:53.389Z,99.90
2022-08-26T03:28:20.824Z,99.90
2022-08-26T03:30:48.784Z,99.90
2022-08-26T03:33:16.019Z,99.90
2022-08-26T03:35:44.847Z,99.90
2022-08-26T03:38:12.489Z,99.90
2022-08-26T03:45:50.804Z,99.90
2022-08-26T03:48:18.360Z,99.90
2022-08-26T03:50:45.721Z,99.90
2022-08-26T03:53:15.683Z,99.90
2022-08-26T03:55:43.215Z,99.90
2022-08-26T03:58:10.680Z,99.90
2022-08-26T04:00:37.887Z,99.90
2022-08-26T04:05:45.516Z,99.90
2022-08-26T04:08:13.631Z,99.90
2022-08-26T04:10:42.436Z,99.90
2022-08-26T04:13:13.363Z,99.90
2022-08-26T04:15:43.314Z,99.90
2022-08-26T04:18:18.330Z,99.90
2022-08-26T04:20:46.987Z,99.90
2022-08-26T04:25:55.475Z,99.90
2022-08-26T04:28:22.619Z,99.90
2022-08-26T04:30:49.404Z,99.90
2022-08-26T04:33:17.871Z,99.90
2022-08-26T04:36:03.309Z,99.90
2022-08-26T04:38:31.623Z,99.90
2022-08-26T04:40:58.612Z,99.90
2022-08-26T04:48:42.369Z,99.90
2022-08-26T04:51:09.878Z,99.90
2022-08-26T04:53:37.909Z,99.90
2022-08-26T04:56:05.535Z,99.90
2022-08-26T04:58:32.586Z,99.90
2022-08-26T05:01:00.099Z,99.90
2022-08-26T05:03:30.466Z,99.90
2022-08-26T05:11:05.756Z,99.90
2022-08-26T05:13:35.427Z,99.90
2022-08-26T05:16:04.713Z,99.90
2022-08-26T05:18:33.583Z,99.90
2022-08-26T05:21:02.007Z,99.90
2022-08-26T05:23:33.069Z,99.90
2022-08-26T05:26:00.654Z,99.90
2022-08-26T05:44:20.575Z,99.90
2022-08-26T05:46:49.232Z,99.90
2022-08-26T05:49:18.577Z,99.90
2022-08-26T05:51:48.026Z,99.90
2022-08-26T05:54:21.931Z,99.90
2022-08-26T05:56:51.104Z,99.90
2022-08-26T05:59:24.086Z,99.90
2022-08-26T06:27:55.596Z,99.90
2022-08-26T06:30:22.788Z,99.90
2022-08-26T06:32:52.505Z,99.90
2022-08-26T06:35:20.183Z,99.90
2022-08-26T06:37:48.540Z,99.90
2022-08-26T06:40:17.492Z,99.90
2022-08-26T06:42:44.399Z,99.90
2022-08-26T06:45:11.362Z,99.90
2022-08-26T06:52:41.605Z,99.90
2022-08-26T06:55:08.709Z,99.90
2022-08-26T06:57:37.781Z,99.90
2022-08-26T07:00:10.498Z,99.90
2022-08-26T07:02:38.721Z,99.90
2022-08-26T07:05:07.364Z,99.90
2022-08-26T07:07:34.474Z,99.90
2022-08-26T07:14:36.447Z,99.90
2022-08-26T07:17:03.413Z,99.90
2022-08-26T07:19:31.743Z,99.90
2022-08-26T07:22:06.304Z,99.90
2022-08-26T07:24:37.704Z,99.90
2022-08-26T07:27:08.940Z,99.90
2022-08-26T07:29:39.045Z,99.90
2022-08-26T07:35:05.741Z,99.90
2022-08-26T07:37:35.482Z,99.90
2022-08-26T07:40:07.810Z,99.90
2022-08-26T07:42:36.502Z,99.90
2022-08-26T07:45:04.468Z,99.90
2022-08-26T07:47:32.345Z,99.90
2022-08-26T07:49:59.641Z,99.90
2022-08-26T08:42:06.068Z,86.30
2022-08-26T08:44:37.495Z,82.60
2022-08-26T08:47:20.757Z,78.80
2022-08-26T08:49:47.857Z,76.90
2022-08-26T08:52:35.069Z,75.20
2022-08-26T08:59:38.418Z,75.70
2022-08-26T09:02:16.752Z,71.80
2022-08-26T09:04:53.937Z,66.20
2022-08-26T09:07:47.122Z,67.10
2022-08-26T09:10:37.204Z,66.90
2022-08-26T09:13:16.851Z,67.40
2022-08-26T09:21:42.974Z,64.60
2022-08-26T09:24:13.824Z,64.40
2022-08-26T09:26:48.198Z,62.00
2022-08-26T09:29:26.684Z,62.80
2022-08-26T09:32:18.759Z,61.80
2022-08-26T09:34:53.929Z,60.60
2022-08-26T09:42:25.456Z,61.40
2022-08-26T09:44:54.438Z,60.20
2022-08-26T09:47:26.211Z,59.30
2022-08-26T09:50:04.173Z,57.10
2022-08-26T09:52:36.200Z,56.40
2022-08-26T09:55:11.949Z,56.50
2022-08-26T09:57:51.158Z,56.20
2022-08-26T10:34:34.698Z,54.40
2022-08-26T10:37:16.285Z,53.90
2022-08-26T10:39:57.303Z,53.50
2022-08-26T10:43:09.928Z,53.70
2022-08-26T10:45:43.639Z,52.30
2022-08-26T10:48:24.182Z,51.20
2022-08-26T10:51:10.131Z,50.70
2022-08-26T10:57:09.778Z,53.70
2022-08-26T11:00:39.835Z,54.90
2022-08-26T11:03:38.672Z,56.00
2022-08-26T11:06:55.382Z,57.10
2022-08-26T11:10:15.842Z,57.30
2022-08-26T11:12:44.934Z,57.20
2022-08-26T11:31:31.884Z,57.00
2022-08-26T11:34:06.791Z,56.50
2022-08-26T11:36:48.842Z,56.70
2022-08-26T11:39:54.442Z,56.50
2022-08-26T11:42:35.159Z,56.70
2022-08-26T12:03:55.100Z,58.10
2022-08-26T12:06:32.285Z,57.90
2022-08-26T12:09:03.571Z,57.10
2022-08-26T12:11:40.184Z,56.90
2022-08-26T12:14:22.332Z,57.30
2022-08-26T12:16:54.773Z,57.10
2022-08-26T12:24:08.892Z,57.80
2022-08-26T12:26:37.692Z,58.30
2022-08-26T12:29:19.826Z,58.20
2022-08-26T12:31:47.514Z,58.40
2022-08-26T12:34:18.198Z,58.30
2022-08-26T12:36:56.036Z,59.00
2022-08-26T12:39:29.844Z,59.20
2022-08-26T12:57:47.052Z,61.50
2022-08-26T13:00:36.470Z,70.20
2022-08-26T13:03:04.143Z,73.60
2022-08-26T13:05:52.770Z,74.10
2022-08-26T13:08:27.838Z,75.80
2022-08-26T13:11:11.289Z,76.50
2022-08-26T15:33:02.021Z,99.90
2022-08-26T15:35:29.666Z,99.90
2022-08-26T15:37:59.877Z,99.90
2022-08-26T15:40:29.347Z,99.90
2022-08-26T15:43:11.348Z,99.90
2022-08-26T15:45:43.771Z,99.90
2022-08-26T15:48:11.285Z,99.90
2022-08-26T16:08:14.377Z,99.90
2022-08-26T16:10:50.247Z,99.90
2022-08-26T16:13:21.832Z,99.90
2022-08-26T16:15:53.837Z,99.90
2022-08-26T16:18:24.227Z,99.90
2022-08-26T16:21:02.716Z,99.90
2022-08-26T16:28:12.960Z,99.90
2022-08-26T16:30:42.019Z,99.90
2022-08-26T16:33:09.366Z,99.90
2022-08-26T16:35:37.800Z,99.90
2022-08-26T16:38:04.728Z,99.90
2022-08-26T16:40:32.094Z,99.90
2022-08-26T16:42:59.576Z,99.90
2022-08-26T16:48:11.795Z,99.90
2022-08-26T16:50:43.474Z,99.90
2022-08-26T16:55:38.571Z,99.90
2022-08-26T16:58:05.654Z,99.90
2022-08-26T17:00:34.061Z,99.90
2022-08-26T17:03:01.670Z,99.90
2022-08-26T17:10:35.967Z,99.90
2022-08-26T17:13:03.333Z,99.90
2022-08-26T17:15:31.445Z,99.90
2022-08-26T17:17:58.538Z,99.90
2022-08-26T17:20:26.478Z,99.90
2022-08-26T17:22:56.954Z,99.90
2022-08-26T17:25:31.055Z,99.90
2022-08-26T17:33:22.023Z,99.90
2022-08-26T17:35:52.443Z,99.90
2022-08-26T17:38:20.545Z,99.90
2022-08-26T17:40:47.945Z,99.90
2022-08-26T17:43:14.937Z,99.90
2022-08-26T17:45:43.407Z,99.90
2022-08-26T17:48:10.713Z,99.90
2022-08-26T17:55:47.504Z,99.90
2022-08-26T17:58:18.057Z,99.90
2022-08-26T18:00:49.058Z,99.90
2022-08-26T18:03:16.601Z,99.90
2022-08-26T18:05:47.277Z,99.90
2022-08-26T18:08:15.008Z,99.90
2022-08-26T18:10:45.187Z,99.90
2022-08-26T18:17:31.420Z,99.90
2022-08-26T18:20:02.053Z,99.90
2022-08-26T18:22:32.013Z,99.90
2022-08-26T18:25:00.585Z,99.90
2022-08-26T18:27:27.663Z,99.90
2022-08-26T18:29:55.693Z,99.90
2022-08-26T18:32:22.674Z,99.90
2022-08-26T18:37:31.414Z,99.90
2022-08-26T18:39:59.231Z,99.90
2022-08-26T18:42:26.696Z,99.90
2022-08-26T18:44:54.881Z,99.90
2022-08-26T18:47:22.273Z,99.90
2022-08-26T18:49:49.471Z,99.90
2022-08-26T18:52:17.018Z,99.90
2022-08-26T19:00:11.175Z,99.90
2022-08-26T19:02:38.102Z,99.90
2022-08-26T19:05:07.384Z,99.90
2022-08-26T19:07:38.999Z,99.90
2022-08-26T19:10:07.513Z,99.90
2022-08-26T19:12:36.105Z,99.90
2022-08-26T19:15:03.794Z,99.90
2022-08-26T19:22:36.993Z,99.90
2022-08-26T19:25:05.064Z,99.90
2022-08-26T19:27:33.014Z,99.90
2022-08-26T19:30:00.613Z,99.90
2022-08-26T19:32:28.094Z,99.90
2022-08-26T19:34:54.961Z,99.90
2022-08-26T19:37:22.493Z,99.90
2022-08-26T19:45:20.195Z,99.90
2022-08-26T19:47:53.183Z,99.90
2022-08-26T19:50:21.064Z,99.90
2022-08-26T19:52:48.369Z,99.90
2022-08-26T19:55:16.927Z,99.90
2022-08-26T19:57:44.127Z,99.90
2022-08-26T20:00:15.324Z,99.90
2022-08-26T20:07:52.758Z,99.90
2022-08-26T20:10:24.411Z,99.90
2022-08-26T20:12:54.413Z,99.90
2022-08-26T20:15:24.834Z,99.90
2022-08-26T20:17:58.731Z,99.90
2022-08-26T20:20:46.109Z,99.90
2022-08-26T20:27:51.979Z,99.90
2022-08-26T20:30:19.128Z,99.90
2022-08-26T20:32:46.341Z,99.90
2022-08-26T20:35:14.126Z,99.90
2022-08-26T20:37:42.613Z,99.90
2022-08-26T20:40:11.600Z,99.90
2022-08-26T20:42:38.679Z,99.90
2022-08-26T20:50:14.059Z,99.90
2022-08-26T20:52:41.640Z,99.90
2022-08-26T20:55:09.158Z,99.90
2022-08-26T20:57:38.161Z,99.90
2022-08-26T21:00:07.392Z,99.90
2022-08-26T21:02:34.402Z,99.90
2022-08-26T21:05:01.625Z,99.90
2022-08-26T21:12:40.791Z,99.90
2022-08-26T21:15:08.779Z,99.90
2022-08-26T21:17:35.416Z,99.90
2022-08-26T21:20:03.229Z,99.90
2022-08-26T21:22:30.272Z,99.90
2022-08-26T21:24:57.406Z,99.90
2022-08-26T21:27:26.407Z,99.90
2022-08-26T21:47:37.851Z,99.90
2022-08-26T21:50:05.989Z,99.90
2022-08-26T21:52:32.801Z,99.90
2022-08-26T21:55:01.549Z,99.90
2022-08-26T21:57:29.588Z,99.90
2022-08-26T21:59:56.680Z,99.90
2022-08-26T22:02:24.715Z,99.90
2022-08-26T22:25:29.267Z,99.90
2022-08-26T22:27:55.894Z,99.90
2022-08-26T22:30:23.682Z,99.90
2022-08-26T22:32:50.630Z,99.90
2022-08-26T22:35:28.699Z,99.90
2022-08-26T22:37:57.739Z,99.90
2022-08-26T22:40:24.839Z,99.90
2022-08-26T22:56:08.217Z,99.90
2022-08-26T22:58:36.344Z,99.90
2022-08-26T23:01:04.736Z,99.90
2022-08-26T23:03:32.147Z,99.90
2022-08-26T23:06:00.113Z,99.90
2022-08-26T23:08:27.294Z,99.90
2022-08-26T23:10:54.206Z,99.90
2022-08-26T23:18:28.157Z,99.90
2022-08-26T23:20:55.357Z,99.90
2022-08-26T23:23:23.208Z,99.90
2022-08-26T23:25:50.115Z,99.90
2022-08-26T23:28:17.554Z,99.90
2022-08-26T23:30:44.191Z,99.90
2022-08-26T23:33:11.187Z,99.90
2022-08-26T23:38:17.977Z,99.90
2022-08-26T23:40:47.427Z,99.90
2022-08-26T23:43:15.849Z,99.90
2022-08-26T23:45:43.311Z,99.90
2022-08-26T23:48:10.327Z,99.90
2022-08-26T23:50:55.984Z,99.90
2022-08-26T23:53:22.960Z,99.90
